createdAt,value
2023-02-16T00:00:54.588Z,-1.26
2023-02-16T00:02:57.679Z,-1.41
2023-02-16T00:05:01.540Z,-1.34
2023-02-16T00:07:03.565Z,-1.29
2023-02-16T00:09:06.514Z,-1.38
2023-02-16T00:11:34.852Z,-1.30
2023-02-16T00:13:53.200Z,-1.29
2023-02-16T00:15:58.259Z,-1.25
2023-02-16T00:18:03.004Z,-1.33
2023-02-16T00:20:14.471Z,-1.31
2023-02-16T00:22:17.381Z,-1.22
2023-02-16T00:24:19.581Z,-1.29
2023-02-16T00:26:24.899Z,-1.18
2023-02-16T00:28:29.433Z,-1.28
2023-02-16T00:30:37.469Z,-1.19
2023-02-16T00:32:39.340Z,-1.27
2023-02-16T00:34:42.185Z,-1.24
2023-02-16T00:36:45.146Z,-1.29
2023-02-16T00:38:47.183Z,-1.26
2023-02-16T00:40:49.118Z,-1.27
2023-02-16T00:42:51.151Z,-1.31
2023-02-16T00:44:56.042Z,-1.26
2023-02-16T00:47:01.592Z,-1.10
2023-02-16T00:49:04.307Z,-1.15
2023-02-16T00:51:20.291Z,-1.04
2023-02-16T00:53:26.948Z,-1.01
2023-02-16T00:55:36.775Z,-1.10
2023-02-16T00:57:50.044Z,-1.06
2023-02-16T01:00:06.588Z,-1.00
2023-02-16T01:02:09.706Z,-1.06
2023-02-16T01:04:20.548Z,-0.97
2023-02-16T01:06:41.010Z,-1.07
2023-02-16T01:09:02.594Z,-1.13
2023-02-16T01:11:07.798Z,-1.17
2023-02-16T01:13:11.108Z,-1.20
2023-02-16T01:15:15.149Z,-1.24
2023-02-16T01:17:17.154Z,-1.42
2023-02-16T01:19:20.205Z,-1.58
2023-02-16T01:21:22.272Z,-1.43
2023-02-16T01:23:24.230Z,-1.43
2023-02-16T01:25:26.294Z,-1.54
2023-02-16T01:27:28.340Z,-1.63
2023-02-16T01:29:31.358Z,-1.69
2023-02-16T01:31:33.556Z,-1.69
2023-02-16T01:33:35.530Z,-1.77
2023-02-16T01:35:37.744Z,-1.79
2023-02-16T01:37:40.726Z,-1.86
2023-02-16T01:39:42.804Z,-1.95
2023-02-16T01:42:07.333Z,-1.95
2023-02-16T01:44:21.612Z,-2.11
2023-02-16T01:46:52.356Z,-2.17
2023-02-16T01:48:55.360Z,-2.08
2023-02-16T01:51:34.832Z,-1.94
2023-02-16T01:53:56.997Z,-2.08
2023-02-16T01:56:05.261Z,-2.07
2023-02-16T01:58:16.661Z,-2.19
2023-02-16T02:00:29.637Z,-2.27
2023-02-16T02:02:40.979Z,-2.35
2023-02-16T02:05:07.820Z,-2.33
2023-02-16T02:07:20.174Z,-2.31
2023-02-16T02:09:45.224Z,-2.47
2023-02-16T02:12:08.508Z,-2.46
2023-02-16T02:14:17.486Z,-2.54
2023-02-16T02:16:27.949Z,-2.33
2023-02-16T02:18:29.900Z,-2.27
2023-02-16T02:21:33.270Z,-2.51
2023-02-16T02:23:44.158Z,-2.39
2023-02-16T02:26:05.858Z,-2.43
2023-02-16T02:28:34.767Z,-2.49
2023-02-16T02:30:47.755Z,-2.60
2023-02-16T02:33:01.600Z,-2.65
2023-02-16T02:35:25.834Z,-2.68
2023-02-16T02:37:51.119Z,-2.59
2023-02-16T02:40:11.959Z,-2.58
2023-02-16T02:42:37.113Z,-2.39
2023-02-16T02:44:49.129Z,-2.53
2023-02-16T02:46:55.163Z,-2.61
2023-02-16T02:49:03.000Z,-2.55
2023-02-16T02:51:31.135Z,-2.62
2023-02-16T02:53:36.990Z,-2.75
2023-02-16T02:56:08.087Z,-3.01
2023-02-16T02:58:29.608Z,-2.93
2023-02-16T03:00:41.739Z,-2.94
2023-02-16T03:02:48.649Z,-2.80
2023-02-16T03:04:52.911Z,-2.83
2023-02-16T03:06:59.155Z,-2.83
2023-02-16T03:09:14.483Z,-3.14
2023-02-16T03:11:43.094Z,-3.02
2023-02-16T03:13:48.840Z,-2.95
2023-02-16T03:15:56.145Z,-2.80
2023-02-16T03:18:18.201Z,-2.89
2023-02-16T03:20:40.582Z,-2.87
2023-02-16T03:23:01.458Z,-3.11
2023-02-16T03:25:23.126Z,-3.12
2023-02-16T03:27:48.780Z,-3.15
2023-02-16T03:29:53.539Z,-2.96
2023-02-16T03:31:57.475Z,-3.06
2023-02-16T03:34:05.306Z,-3.22
2023-02-16T03:36:12.539Z,-3.23
2023-02-16T03:38:17.271Z,-2.99
2023-02-16T03:40:28.945Z,-3.26
2023-02-16T03:42:30.962Z,-3.04
2023-02-16T03:44:35.842Z,-3.23
2023-02-16T03:46:39.869Z,-3.25
2023-02-16T03:48:41.916Z,-3.14
2023-02-16T03:50:50.684Z,-3.05
2023-02-16T03:53:07.073Z,-2.99
2023-02-16T03:55:15.444Z,-2.90
2023-02-16T03:57:17.460Z,-2.95
2023-02-16T03:59:20.437Z,-2.95
2023-02-16T04:01:23.380Z,-2.93
2023-02-16T04:03:27.268Z,-2.95
2023-02-16T04:05:32.687Z,-3.03
2023-02-16T04:07:35.588Z,-2.97
2023-02-16T04:09:37.488Z,-3.25
2023-02-16T04:11:57.851Z,-3.23
2023-02-16T04:14:01.868Z,-3.26
2023-02-16T04:16:03.875Z,-3.30
2023-02-16T04:18:05.904Z,-3.25
2023-02-16T04:20:13.028Z,-3.32
2023-02-16T04:22:14.921Z,-3.27
2023-02-16T04:24:16.852Z,-3.35
2023-02-16T04:26:33.827Z,-3.19
2023-02-16T04:28:35.829Z,-3.35
2023-02-16T04:30:39.913Z,-3.42
2023-02-16T04:32:47.114Z,-3.52
2023-02-16T04:34:50.373Z,-3.42
2023-02-16T04:36:52.310Z,-3.49
2023-02-16T04:38:56.233Z,-3.49
2023-02-16T04:40:59.114Z,-3.57
2023-02-16T04:43:03.036Z,-3.46
2023-02-16T04:45:13.006Z,-3.39
2023-02-16T04:47:15.054Z,-3.41
2023-02-16T04:49:17.191Z,-3.60
2023-02-16T04:51:19.226Z,-3.60
2023-02-16T04:53:22.261Z,-3.67
2023-02-16T04:55:26.233Z,-3.62
2023-02-16T04:57:29.252Z,-3.66
2023-02-16T04:59:31.504Z,-3.65
2023-02-16T05:01:34.538Z,-3.56
2023-02-16T05:03:42.298Z,-3.52
2023-02-16T05:05:46.261Z,-3.70
2023-02-16T05:07:48.232Z,-3.69
2023-02-16T05:09:50.257Z,-3.52
2023-02-16T05:12:16.431Z,-3.65
2023-02-16T05:14:42.776Z,-3.74
2023-02-16T05:16:45.682Z,-3.61
2023-02-16T05:18:58.384Z,-3.68
2023-02-16T05:21:19.143Z,-3.62
2023-02-16T05:23:21.533Z,-3.75
2023-02-16T05:25:29.189Z,-3.71
2023-02-16T05:27:32.450Z,-3.73
2023-02-16T05:29:35.734Z,-3.65
2023-02-16T05:31:39.738Z,-3.63
2023-02-16T05:33:41.720Z,-3.71
2023-02-16T05:35:43.622Z,-3.89
2023-02-16T05:37:51.334Z,-3.66
2023-02-16T05:39:53.354Z,-3.80
2023-02-16T05:41:55.342Z,-3.61
2023-02-16T05:44:01.402Z,-3.80
2023-02-16T05:46:12.167Z,-3.57
2023-02-16T05:48:21.276Z,-3.75
2023-02-16T05:50:23.280Z,-3.84
2023-02-16T05:52:25.230Z,-3.45
2023-02-16T05:54:30.363Z,-3.27
2023-02-16T05:56:38.211Z,-3.47
2023-02-16T05:58:40.288Z,-3.55
2023-02-16T06:00:42.240Z,-3.62
2023-02-16T06:02:45.272Z,-4.02
2023-02-16T06:04:48.256Z,-3.80
2023-02-16T06:06:50.569Z,-3.41
2023-02-16T06:09:01.961Z,-3.31
2023-02-16T06:11:07.240Z,-3.28
2023-02-16T06:13:14.160Z,-3.19
2023-02-16T06:15:16.162Z,-3.26
2023-02-16T06:17:18.418Z,-3.06
2023-02-16T06:19:21.136Z,-3.13
2023-02-16T06:21:25.280Z,-3.10
2023-02-16T06:23:27.311Z,-3.03
2023-02-16T06:25:29.489Z,-3.12
2023-02-16T06:27:37.911Z,-3.07
2023-02-16T06:29:39.900Z,-3.00
2023-02-16T06:31:44.027Z,-3.03
2023-02-16T06:33:57.142Z,-2.69
2023-02-16T06:35:59.138Z,-2.61
2023-02-16T06:38:01.069Z,-2.53
2023-02-16T06:40:03.365Z,-2.45
2023-02-16T06:42:06.684Z,-2.44
2023-02-16T06:44:14.650Z,-2.43
2023-02-16T06:46:16.696Z,-2.49
2023-02-16T06:48:19.681Z,-2.38
2023-02-16T06:50:21.742Z,-2.26
2023-02-16T06:52:32.792Z,-2.20
2023-02-16T06:54:35.853Z,-2.11
2023-02-16T06:56:38.870Z,-1.96
2023-02-16T06:58:42.029Z,-1.84
2023-02-16T07:00:51.103Z,-1.72
2023-02-16T07:02:54.243Z,-1.65
2023-02-16T07:04:59.592Z,-1.60
2023-02-16T07:07:01.748Z,-1.43
2023-02-16T07:09:04.401Z,-1.30
2023-02-16T07:11:07.680Z,-1.24
2023-02-16T07:13:18.846Z,-1.13
2023-02-16T07:15:20.800Z,-1.11
2023-02-16T07:17:22.778Z,-1.00
2023-02-16T07:19:34.784Z,-0.91
2023-02-16T07:21:37.010Z,-0.93
2023-02-16T07:23:42.386Z,-0.83
2023-02-16T07:25:44.383Z,-0.71
2023-02-16T07:27:52.585Z,-0.61
2023-02-16T07:29:54.601Z,-0.40
2023-02-16T07:31:58.047Z,-0.34
2023-02-16T07:34:01.104Z,-0.26
2023-02-16T07:36:03.656Z,-0.15
2023-02-16T07:38:08.088Z,-0.08
2023-02-16T07:40:11.736Z,-0.08
2023-02-16T07:42:21.493Z,0.04
2023-02-16T07:44:23.511Z,0.14
2023-02-16T07:46:25.586Z,0.40
2023-02-16T07:48:27.646Z,0.58
2023-02-16T07:50:29.646Z,0.92
2023-02-16T07:52:31.538Z,0.95
2023-02-16T07:54:34.024Z,1.15
2023-02-16T07:56:41.880Z,1.24
2023-02-16T07:58:44.039Z,1.50
2023-02-16T08:00:46.963Z,1.74
2023-02-16T08:02:50.465Z,1.80
2023-02-16T08:04:53.670Z,1.91
2023-02-16T08:06:55.700Z,2.00
2023-02-16T08:09:04.905Z,2.21
2023-02-16T08:11:23.958Z,2.49
2023-02-16T08:13:25.997Z,2.73
2023-02-16T08:15:28.004Z,2.68
2023-02-16T08:17:29.933Z,2.87
2023-02-16T08:19:33.134Z,2.82
2023-02-16T08:21:35.190Z,3.03
2023-02-16T08:23:38.000Z,2.99
2023-02-16T08:25:42.030Z,3.01
2023-02-16T08:27:43.964Z,3.18
2023-02-16T08:29:47.963Z,3.34
2023-02-16T08:31:51.956Z,3.32
2023-02-16T08:33:55.263Z,3.38
2023-02-16T08:35:59.856Z,3.41
2023-02-16T08:38:02.695Z,3.50
2023-02-16T08:40:08.454Z,3.60
2023-02-16T08:42:13.589Z,3.64
2023-02-16T08:44:17.132Z,3.62
2023-02-16T08:46:19.300Z,3.68
2023-02-16T08:48:21.588Z,3.67
2023-02-16T08:50:23.654Z,3.65
2023-02-16T08:52:26.794Z,3.64
2023-02-16T08:54:30.761Z,3.57
2023-02-16T08:56:35.643Z,3.53
2023-02-16T08:58:38.096Z,3.67
2023-02-16T09:00:41.768Z,3.61
2023-02-16T09:02:44.991Z,3.61
2023-02-16T09:04:49.881Z,3.61
2023-02-16T09:06:53.605Z,3.53
2023-02-16T09:08:57.457Z,3.58
2023-02-16T09:11:08.245Z,3.65
2023-02-16T09:13:16.942Z,3.68
2023-02-16T09:15:18.956Z,3.65
2023-02-16T09:17:20.887Z,3.69
2023-02-16T09:19:23.094Z,3.78
2023-02-16T09:21:26.269Z,3.88
2023-02-16T09:23:28.260Z,3.90
2023-02-16T09:25:30.385Z,3.98
2023-02-16T09:27:35.008Z,3.92
2023-02-16T09:29:44.268Z,4.14
2023-02-16T09:31:47.986Z,4.07
2023-02-16T09:33:50.035Z,3.99
2023-02-16T09:35:54.155Z,4.17
2023-02-16T09:37:58.067Z,4.48
2023-02-16T09:40:00.173Z,4.39
2023-02-16T09:42:34.412Z,4.36
2023-02-16T09:44:52.402Z,4.45
2023-02-16T09:46:57.651Z,4.60
2023-02-16T09:49:02.828Z,4.74
2023-02-16T09:51:07.895Z,4.73
2023-02-16T09:53:24.632Z,4.81
2023-02-16T09:55:44.031Z,4.93
2023-02-16T09:58:08.287Z,5.02
2023-02-16T10:00:32.688Z,4.87
2023-02-16T10:02:54.898Z,5.03
2023-02-16T10:05:02.865Z,5.20
2023-02-16T10:07:32.704Z,5.18
2023-02-16T10:09:35.764Z,5.23
2023-02-16T10:11:49.136Z,5.27
2023-02-16T10:13:55.446Z,5.23
2023-02-16T10:15:59.741Z,5.23
2023-02-16T10:18:15.480Z,5.09
2023-02-16T10:20:27.277Z,5.29
2023-02-16T10:22:42.294Z,5.41
2023-02-16T10:25:02.594Z,5.26
2023-02-16T10:27:11.906Z,5.39
2023-02-16T10:29:19.583Z,5.44
2023-02-16T10:31:28.718Z,5.70
2023-02-16T10:33:42.857Z,5.69
2023-02-16T10:35:49.674Z,5.99
2023-02-16T10:38:03.302Z,5.93
2023-02-16T10:40:15.246Z,6.11
2023-02-16T10:42:44.817Z,6.10
2023-02-16T10:44:58.389Z,6.13
2023-02-16T10:47:04.656Z,6.03
2023-02-16T10:49:14.420Z,5.91
2023-02-16T10:51:19.223Z,5.75
2023-02-16T10:54:00.021Z,5.86
2023-02-16T10:56:02.625Z,6.21
2023-02-16T10:58:05.137Z,6.19
2023-02-16T11:00:12.543Z,6.11
2023-02-16T11:02:25.587Z,6.51
2023-02-16T11:04:38.483Z,6.52
2023-02-16T11:06:42.196Z,6.58
2023-02-16T11:08:55.302Z,6.56
2023-02-16T11:10:58.299Z,6.93
2023-02-16T11:13:00.597Z,6.72
2023-02-16T11:15:16.786Z,6.86
2023-02-16T11:17:21.570Z,6.76
2023-02-16T11:19:26.335Z,6.59
2023-02-16T11:21:49.107Z,6.51
2023-02-16T11:24:02.340Z,6.67
2023-02-16T11:26:21.495Z,6.72
2023-02-16T11:28:38.215Z,6.62
2023-02-16T11:30:43.422Z,6.87
2023-02-16T11:32:46.110Z,6.62
2023-02-16T11:34:50.918Z,6.85
2023-02-16T11:37:21.218Z,6.72
2023-02-16T11:39:31.256Z,6.60
2023-02-16T11:41:34.118Z,6.58
2023-02-16T11:43:39.175Z,6.67
2023-02-16T11:45:41.394Z,6.63
2023-02-16T11:47:43.356Z,6.47
2023-02-16T11:49:46.410Z,6.67
2023-02-16T11:51:50.420Z,6.68
2023-02-16T11:54:04.795Z,6.62
2023-02-16T11:56:23.510Z,6.54
2023-02-16T11:58:28.105Z,6.57
2023-02-16T12:00:32.003Z,6.53
2023-02-16T12:03:12.318Z,6.55
2023-02-16T12:05:32.614Z,6.64
2023-02-16T12:07:53.820Z,6.82
2023-02-16T12:10:04.756Z,6.83
2023-02-16T12:12:13.198Z,6.81
2023-02-16T12:14:30.830Z,6.75
2023-02-16T12:16:49.706Z,6.66
2023-02-16T12:19:06.788Z,6.64
2023-02-16T12:21:45.579Z,6.60
2023-02-16T12:23:57.082Z,6.72
2023-02-16T12:26:20.251Z,6.68
2023-02-16T12:28:39.382Z,6.55
2023-02-16T12:31:05.670Z,6.67
2023-02-16T12:33:27.990Z,6.60
2023-02-16T12:35:51.763Z,6.69
2023-02-16T12:38:21.526Z,6.60
2023-02-16T12:40:44.696Z,6.67
2023-02-16T12:43:19.161Z,6.56
2023-02-16T12:45:25.922Z,6.58
2023-02-16T12:47:37.617Z,6.52
2023-02-16T12:50:03.078Z,6.65
2023-02-16T12:52:43.535Z,6.69
2023-02-16T12:55:22.370Z,6.71
2023-02-16T12:57:30.751Z,6.70
2023-02-16T13:00:17.980Z,6.83
2023-02-16T13:02:27.221Z,6.74
2023-02-16T13:04:48.490Z,6.72
2023-02-16T13:07:28.448Z,6.79
2023-02-16T13:09:55.410Z,6.79
2023-02-16T13:12:24.422Z,6.73
2023-02-16T13:14:33.502Z,6.75
2023-02-16T13:16:47.241Z,6.75
2023-02-16T13:18:54.114Z,6.75
2023-02-16T13:21:11.361Z,6.67
2023-02-16T13:23:34.564Z,6.87
2023-02-16T13:26:11.255Z,6.82
2023-02-16T13:28:33.032Z,6.70
2023-02-16T13:30:38.348Z,6.69
2023-02-16T13:32:50.291Z,6.78
2023-02-16T13:35:20.291Z,6.73
2023-02-16T13:37:57.444Z,6.70
2023-02-16T13:40:27.820Z,6.70
2023-02-16T13:43:10.452Z,6.55
2023-02-16T13:45:21.357Z,6.44
2023-02-16T13:47:31.347Z,6.32
2023-02-16T13:49:43.564Z,6.23
2023-02-16T13:51:47.698Z,6.20
2023-02-16T13:53:59.695Z,6.11
2023-02-16T13:56:36.389Z,6.10
2023-02-16T13:58:40.975Z,5.99
2023-02-16T14:01:08.243Z,5.99
2023-02-16T14:03:23.018Z,6.04
2023-02-16T14:05:39.233Z,5.99
2023-02-16T14:07:47.400Z,5.91
2023-02-16T14:09:50.263Z,5.83
2023-02-16T14:11:54.225Z,5.97
2023-02-16T14:13:56.206Z,5.93
2023-02-16T14:16:10.050Z,5.97
2023-02-16T14:18:33.165Z,6.04
2023-02-16T14:20:36.399Z,6.04
2023-02-16T14:22:53.617Z,6.01
2023-02-16T14:25:00.148Z,5.93
2023-02-16T14:27:06.427Z,6.01
2023-02-16T14:29:19.317Z,5.94
2023-02-16T14:31:26.308Z,5.88
2023-02-16T14:33:28.438Z,5.88
2023-02-16T14:35:35.845Z,5.82
2023-02-16T14:37:41.684Z,5.97
2023-02-16T14:40:07.461Z,6.04
2023-02-16T14:42:18.371Z,5.87
2023-02-16T14:44:54.833Z,5.77
2023-02-16T14:47:11.722Z,5.87
2023-02-16T14:49:41.586Z,5.83
2023-02-16T14:52:20.809Z,5.77
2023-02-16T14:54:54.052Z,5.87
2023-02-16T14:57:16.917Z,5.75
2023-02-16T14:59:28.159Z,5.57
2023-02-16T15:01:43.473Z,5.61
2023-02-16T15:03:55.972Z,5.64
2023-02-16T15:06:09.503Z,5.61
2023-02-16T15:08:35.538Z,5.55
2023-02-16T15:10:39.943Z,5.52
2023-02-16T15:12:45.249Z,5.37
2023-02-16T15:14:57.806Z,5.38
2023-02-16T15:17:08.420Z,5.29
2023-02-16T15:19:24.100Z,5.14
2023-02-16T15:21:39.575Z,5.08
2023-02-16T15:23:52.463Z,5.07
2023-02-16T15:26:05.645Z,4.96
2023-02-16T15:28:11.339Z,4.96
2023-02-16T15:30:22.032Z,4.83
2023-02-16T15:32:25.206Z,4.75
2023-02-16T15:34:35.186Z,4.73
2023-02-16T15:36:41.104Z,4.82
2023-02-16T15:38:57.468Z,4.60
2023-02-16T15:41:04.071Z,4.63
2023-02-16T15:43:40.219Z,4.64
2023-02-16T15:45:42.820Z,4.52
2023-02-16T15:47:55.986Z,4.43
2023-02-16T15:49:58.291Z,4.42
2023-02-16T15:52:02.398Z,4.29
2023-02-16T15:54:13.772Z,4.33
2023-02-16T15:56:47.561Z,4.29
2023-02-16T15:59:03.175Z,4.20
2023-02-16T16:01:37.666Z,4.13
2023-02-16T16:03:46.796Z,3.99
2023-02-16T16:06:03.387Z,3.83
2023-02-16T16:08:13.216Z,4.03
2023-02-16T16:10:41.558Z,3.99
2023-02-16T16:12:51.001Z,4.04
2023-02-16T16:14:59.916Z,3.80
2023-02-16T16:17:04.411Z,3.80
2023-02-16T16:19:16.442Z,3.73
2023-02-16T16:21:27.663Z,3.76
2023-02-16T16:23:30.461Z,3.72
2023-02-16T16:25:45.416Z,3.90
2023-02-16T16:27:50.730Z,3.69
2023-02-16T16:30:10.483Z,3.72
2023-02-16T16:32:34.620Z,3.44
2023-02-16T16:34:50.644Z,3.48
2023-02-16T16:36:57.457Z,3.54
2023-02-16T16:39:10.850Z,3.50
2023-02-16T16:41:33.227Z,3.53
2023-02-16T16:43:52.587Z,3.54
2023-02-16T16:46:24.417Z,3.45
2023-02-16T16:48:36.983Z,3.40
2023-02-16T16:50:40.397Z,3.49
2023-02-16T16:52:48.160Z,3.43
2023-02-16T16:54:57.886Z,3.47
2023-02-16T16:57:19.424Z,3.44
2023-02-16T16:59:22.864Z,3.46
2023-02-16T17:01:28.786Z,3.48
2023-02-16T17:03:40.442Z,3.33
2023-02-16T17:05:44.727Z,3.31
2023-02-16T17:07:56.545Z,3.47
2023-02-16T17:10:08.033Z,3.28
2023-02-16T17:12:25.198Z,3.26
2023-02-16T17:14:29.187Z,3.28
2023-02-16T17:16:42.628Z,3.28
2023-02-16T17:18:45.664Z,3.35
2023-02-16T17:21:06.876Z,3.18
2023-02-16T17:23:12.834Z,3.01
2023-02-16T17:25:24.801Z,2.95
2023-02-16T17:27:32.997Z,3.02
2023-02-16T17:29:39.974Z,3.04
2023-02-16T17:31:43.317Z,2.88
2023-02-16T17:34:09.498Z,2.94
2023-02-16T17:36:17.010Z,2.78
2023-02-16T17:38:26.787Z,2.79
2023-02-16T17:40:37.162Z,2.95
2023-02-16T17:42:43.260Z,3.03
2023-02-16T17:44:54.015Z,2.89
2023-02-16T17:46:57.107Z,3.03
2023-02-16T17:49:02.144Z,2.92
2023-02-16T17:51:18.906Z,3.13
2023-02-16T17:53:38.217Z,3.08
2023-02-16T17:55:40.875Z,3.02
2023-02-16T17:57:44.861Z,2.92
2023-02-16T17:59:48.886Z,3.03
2023-02-16T18:01:52.006Z,3.10
2023-02-16T18:04:01.703Z,2.95
2023-02-16T18:06:15.435Z,3.01
2023-02-16T18:08:18.452Z,2.90
2023-02-16T18:10:47.807Z,3.02
2023-02-16T18:12:51.897Z,2.94
2023-02-16T18:14:55.014Z,2.92
2023-02-16T18:17:00.523Z,3.00
2023-02-16T18:19:09.030Z,3.10
2023-02-16T18:21:17.718Z,2.92
2023-02-16T18:23:28.983Z,3.08
2023-02-16T18:25:37.104Z,2.88
2023-02-16T18:27:42.030Z,3.04
2023-02-16T18:29:45.206Z,3.08
2023-02-16T18:31:49.006Z,3.14
2023-02-16T18:33:57.444Z,3.12
2023-02-16T18:36:12.078Z,3.04
2023-02-16T18:38:16.578Z,2.92
2023-02-16T18:40:25.613Z,3.10
2023-02-16T18:42:37.026Z,3.12
2023-02-16T18:44:40.171Z,3.06
2023-02-16T18:46:47.736Z,2.99
2023-02-16T18:48:51.859Z,3.01
2023-02-16T18:51:26.686Z,3.01
2023-02-16T18:53:33.001Z,3.13
2023-02-16T18:55:37.613Z,3.25
2023-02-16T18:57:40.591Z,3.09
2023-02-16T18:59:45.301Z,3.06
2023-02-16T19:01:57.062Z,3.12
2023-02-16T19:04:02.271Z,3.19
2023-02-16T19:06:08.705Z,2.97
2023-02-16T19:08:12.036Z,2.97
2023-02-16T19:10:21.087Z,2.95
2023-02-16T19:12:31.305Z,2.88
2023-02-16T19:14:43.895Z,2.91
2023-02-16T19:16:53.775Z,2.83
2023-02-16T19:19:21.922Z,2.86
2023-02-16T19:21:26.585Z,2.78
2023-02-16T19:23:51.500Z,2.84
2023-02-16T19:25:55.707Z,2.83
2023-02-16T19:27:59.344Z,2.83
2023-02-16T19:30:11.361Z,2.77
2023-02-16T19:32:15.487Z,2.86
2023-02-16T19:34:22.987Z,2.75
2023-02-16T19:36:28.124Z,2.66
2023-02-16T19:38:35.226Z,2.58
2023-02-16T19:40:45.329Z,2.66
2023-02-16T19:42:49.593Z,2.60
2023-02-16T19:44:52.821Z,2.49
2023-02-16T19:46:57.821Z,2.60
2023-02-16T19:49:07.307Z,2.50
2023-02-16T19:51:19.741Z,2.43
2023-02-16T19:53:26.147Z,2.51
2023-02-16T19:55:30.526Z,2.31
2023-02-16T19:57:35.161Z,2.35
2023-02-16T19:59:45.263Z,2.23
2023-02-16T20:01:48.148Z,2.14
2023-02-16T20:04:03.527Z,2.15
2023-02-16T20:06:21.330Z,2.17
2023-02-16T20:08:33.461Z,2.05
2023-02-16T20:10:45.669Z,2.03
2023-02-16T20:12:56.947Z,1.99
2023-02-16T20:15:03.354Z,1.92
2023-02-16T20:17:13.646Z,1.83
2023-02-16T20:19:18.300Z,1.77
2023-02-16T20:21:23.934Z,1.74
2023-02-16T20:23:29.913Z,1.79
2023-02-16T20:26:08.873Z,1.79
2023-02-16T20:28:19.573Z,1.70
2023-02-16T20:30:26.038Z,1.63
2023-02-16T20:32:39.813Z,1.60
2023-02-16T20:34:42.410Z,1.71
2023-02-16T20:36:45.198Z,1.56
2023-02-16T20:39:00.081Z,1.52
2023-02-16T20:41:06.264Z,1.56
2023-02-16T20:43:16.393Z,1.50
2023-02-16T20:45:28.698Z,1.53
2023-02-16T20:47:31.572Z,1.45
2023-02-16T20:49:36.181Z,1.38
2023-02-16T20:51:39.367Z,1.49
2023-02-16T20:53:44.633Z,1.41
2023-02-16T20:55:51.050Z,1.50
2023-02-16T20:58:01.375Z,1.45
2023-02-16T21:00:13.948Z,1.45
2023-02-16T21:02:18.841Z,1.41
2023-02-16T21:04:22.611Z,1.28
2023-02-16T21:06:31.094Z,1.27
2023-02-16T21:08:38.920Z,1.32
2023-02-16T21:10:42.713Z,1.36
2023-02-16T21:12:48.862Z,1.34
2023-02-16T21:14:57.585Z,1.37
2023-02-16T21:17:03.422Z,1.34
2023-02-16T21:19:22.272Z,1.32
2023-02-16T21:21:34.713Z,1.41
2023-02-16T21:23:37.538Z,1.37
2023-02-16T21:25:45.459Z,1.40
2023-02-16T21:27:47.746Z,1.37
2023-02-16T21:29:50.796Z,1.37
2023-02-16T21:31:54.042Z,1.40
2023-02-16T21:33:57.393Z,1.37
2023-02-16T21:36:23.527Z,1.41
2023-02-16T21:38:25.696Z,1.39
2023-02-16T21:40:48.497Z,1.36
2023-02-16T21:42:53.468Z,1.40
2023-02-16T21:45:12.657Z,1.47
2023-02-16T21:47:33.610Z,1.46
2023-02-16T21:49:35.638Z,1.48
2023-02-16T21:51:39.868Z,1.41
2023-02-16T21:53:42.274Z,1.37
2023-02-16T21:56:03.237Z,1.46
2023-02-16T21:58:11.046Z,1.46
2023-02-16T22:00:15.761Z,1.36
2023-02-16T22:02:18.008Z,1.42
2023-02-16T22:04:22.539Z,1.47
2023-02-16T22:06:26.708Z,1.38
2023-02-16T22:08:29.033Z,1.36
2023-02-16T22:10:31.012Z,1.46
2023-02-16T22:12:33.749Z,1.43
2023-02-16T22:14:35.951Z,1.41
2023-02-16T22:16:38.905Z,1.47
2023-02-16T22:18:41.428Z,1.42
2023-02-16T22:20:43.471Z,1.36
2023-02-16T22:22:47.625Z,1.33
2023-02-16T22:24:49.551Z,1.39
2023-02-16T22:26:55.104Z,1.43
2023-02-16T22:28:59.254Z,1.48
2023-02-16T22:31:09.385Z,1.47
2023-02-16T22:33:11.422Z,1.55
2023-02-16T22:35:14.344Z,1.45
2023-02-16T22:37:17.611Z,1.48
2023-02-16T22:39:20.340Z,1.49
2023-02-16T22:41:22.876Z,1.49
2023-02-16T22:43:25.907Z,1.45
2023-02-16T22:45:34.759Z,1.52
2023-02-16T22:47:37.753Z,1.71
2023-02-16T22:49:40.776Z,1.49
2023-02-16T22:51:46.533Z,1.56
2023-02-16T22:53:49.322Z,1.68
2023-02-16T22:55:51.426Z,1.66
2023-02-16T22:57:53.475Z,1.74
2023-02-16T22:59:55.467Z,1.79
2023-02-16T23:01:57.550Z,1.72
2023-02-16T23:04:01.041Z,1.62
2023-02-16T23:06:28.368Z,1.71
2023-02-16T23:08:30.337Z,1.72
2023-02-16T23:10:32.510Z,1.76
2023-02-16T23:12:34.518Z,1.78
2023-02-16T23:14:39.151Z,1.73
2023-02-16T23:16:41.125Z,1.72
2023-02-16T23:18:43.878Z,1.68
2023-02-16T23:20:45.766Z,1.64
2023-02-16T23:22:47.794Z,1.77
2023-02-16T23:25:09.682Z,1.66
2023-02-16T23:27:12.783Z,1.69
2023-02-16T23:29:15.595Z,1.73
2023-02-16T23:31:19.677Z,1.75
2023-02-16T23:33:21.786Z,1.75
2023-02-16T23:35:24.774Z,1.72
2023-02-16T23:37:31.685Z,1.79
2023-02-16T23:39:33.655Z,1.75
2023-02-16T23:41:37.282Z,1.78
2023-02-16T23:43:39.586Z,1.83
2023-02-16T23:45:41.563Z,1.96
2023-02-16T23:47:43.575Z,1.85
2023-02-16T23:49:45.565Z,1.84
2023-02-16T23:51:48.532Z,1.86
2023-02-16T23:53:50.712Z,1.93
2023-02-16T23:56:00.962Z,1.91
2023-02-16T23:58:03.994Z,1.94
